الصفحة الرئيسية
METAR-TAF:

METAR-TAF

مطار :

Eureka, نونافوت, كندا

دائرة عرض: 79-59N, خط طول: 085-56W, ارتفاع: 10 متر

مراقبة الطقس الحالي

تاريخ ووقت الإصدار 1ساعة و 12 دقيقة قبل الساعة 16:00UTC
ريح 11 عقدة من الشرق/الجنوب الشرقي
درجة الحرارة 10°درجة مئوية
الرطوبة 50%
ضغط 1016 hPa
الرؤية: 24.1 كم
غيوم مفككة على ارتفاع 5100 قدم
غيوم مفككة على ارتفاع 9300 قدم

METAR: CWEU 151600Z 12011KT 15SM BKN051 BKN093 10/00 A3000 RMK SC7AC1 SLP169

زمن: 12:12 (17:12 UTC)


TAF: مفقودة

أرصاد الطقس والتوقعات من أكثر من 4000 مطار (تقارير الطقس للمطار METAR والتنبؤ بالطقس بالمطارTAF).

المحطات المتاحة هي النقط الصفراء والحمراء على الخريطة.

حرك المؤشر فوق النقطة لمعرفة اسم المحطة.

ثم انقر لمعرفة أرصاد وتوقعات الطقس.

لتغيير الخارطة: اضغط على الأزرار الخضراء مع رمز الصليب الأسود للتكبير. على الزر الأخضر مع شرطة للتصغير، أو على الأسهم الخضراء للخرائط المجاورة.


METAR-TAF: